Time;durP1;ratioP1;P1;durP2;ratioP2;P2;SDS_P1;SDS_P2;PMS_P1;PMS_P2;Temp;Humidity;BMP_temperature;BMP_pressure;BME280_temperature;BME280_humidity;BME280_pressure;Samples;Min_cycle;Max_cycle;Signal;HPM_P1;HPM_P2
2023/11/13 00:01:12;;;;;;;7.60;3.75;;;7.00;99.90;;;;;;5026942;28;20109;-51
2023/11/13 00:03:38;;;;;;;4.28;3.90;;;7.00;99.90;;;;;;4969178;28;20030;-49
2023/11/13 00:06:04;;;;;;;3.88;3.53;;;6.90;99.90;;;;;;4969219;28;20023;-49
2023/11/13 00:08:30;;;;;;;3.42;3.13;;;6.90;99.90;;;;;;4969314;28;20035;-50
2023/11/13 00:10:56;;;;;;;3.58;3.28;;;6.90;99.90;;;;;;4968998;28;20402;-47
2023/11/13 00:13:22;;;;;;;3.85;3.53;;;6.90;99.90;;;;;;4969073;28;20026;-48
2023/11/13 00:15:47;;;;;;;4.30;3.80;;;6.90;99.90;;;;;;4969277;28;20410;-50
2023/11/13 00:18:14;;;;;;;4.50;3.50;;;6.90;99.90;;;;;;4969765;28;20031;-49
2023/11/13 00:20:40;;;;;;;4.25;3.90;;;6.80;99.90;;;;;;4972319;28;20034;-48
2023/11/13 00:23:06;;;;;;;5.13;4.47;;;6.90;99.90;;;;;;4972151;28;20033;-53
2023/11/13 00:25:32;;;;;;;5.95;5.25;;;6.80;99.90;;;;;;4971895;28;20556;-49
2023/11/13 00:27:57;;;;;;;8.85;4.93;;;6.80;99.90;;;;;;4972020;28;20030;-49
2023/11/13 00:30:23;;;;;;;6.10;5.50;;;6.80;99.90;;;;;;4972563;28;20486;-48
2023/11/13 00:32:48;;;;;;;12.77;8.77;;;6.80;99.90;;;;;;4972536;28;20030;-45
2023/11/13 00:35:14;;;;;;;88.95;49.45;;;6.80;99.90;;;;;;4972378;28;20027;-61
2023/11/13 00:37:39;;;;;;;8.95;7.35;;;6.80;99.90;;;;;;4973287;28;20490;-50
2023/11/13 00:40:06;;;;;;;7.97;6.75;;;6.80;99.90;;;;;;4985553;23;20051;-49
2023/11/13 00:42:31;;;;;;;7.70;6.68;;;6.80;99.90;;;;;;4972205;28;20394;-48
2023/11/13 00:44:57;;;;;;;10.02;7.28;;;6.90;99.90;;;;;;4972405;28;20041;-46
2023/11/13 00:47:22;;;;;;;9.80;7.47;;;6.90;99.90;;;;;;4970796;28;20030;-50
2023/11/13 00:49:48;;;;;;;9.55;8.00;;;6.90;99.90;;;;;;4942939;29;20548;-46
2023/11/13 00:52:13;;;;;;;7.75;7.00;;;7.00;99.90;;;;;;4968365;28;20400;-47
2023/11/13 00:54:39;;;;;;;8.52;7.63;;;7.00;99.90;;;;;;4967936;28;20027;-48
2023/11/13 00:57:04;;;;;;;8.23;7.38;;;7.00;99.90;;;;;;4953060;29;20031;-48
2023/11/13 00:59:30;;;;;;;9.65;7.72;;;7.00;99.90;;;;;;4952903;29;20033;-48
2023/11/13 01:01:57;;;;;;;10.73;7.97;;;7.00;99.90;;;;;;4967593;28;20035;-50
2023/11/13 01:04:23;;;;;;;9.85;8.85;;;7.00;99.90;;;;;;4952689;28;20386;-49
2023/11/13 01:06:53;;;;;;;9.98;7.75;;;6.90;99.90;;;;;;4952600;28;20122;-51
2023/11/13 01:09:19;;;;;;;11.52;8.10;;;7.00;99.90;;;;;;4952479;28;20050;-46
2023/11/13 01:11:45;;;;;;;10.85;8.70;;;7.00;99.90;;;;;;4952325;29;20019;-46
2023/11/13 01:14:10;;;;;;;9.10;8.20;;;7.00;99.90;;;;;;4967223;28;20030;-50
2023/11/13 01:16:37;;;;;;;9.18;8.15;;;7.00;99.90;;;;;;4952331;29;20106;-46
2023/11/13 01:19:03;;;;;;;10.75;8.88;;;7.00;99.90;;;;;;4952312;28;20024;-48
2023/11/13 01:21:29;;;;;;;13.75;10.05;;;7.00;99.90;;;;;;4952332;28;20032;-45
2023/11/13 01:23:55;;;;;;;11.90;9.10;;;7.00;99.90;;;;;;4950972;29;20035;-47
2023/11/13 01:26:21;;;;;;;14.68;8.45;;;6.90;99.90;;;;;;4952128;28;20015;-45
2023/11/13 01:28:46;;;;;;;10.50;8.68;;;7.00;99.90;;;;;;4951890;29;20023;-49
2023/11/13 01:31:15;;;;;;;10.88;9.32;;;7.00;99.90;;;;;;4951510;28;20019;-51
2023/11/13 01:33:40;;;;;;;12.90;9.68;;;7.00;99.90;;;;;;4966999;28;20138;-47
2023/11/13 01:36:06;;;;;;;14.63;8.77;;;7.10;99.90;;;;;;4952086;29;20103;-51
2023/11/13 01:38:33;;;;;;;9.77;8.05;;;7.00;99.90;;;;;;4952054;29;20085;-48
2023/11/13 01:40:59;;;;;;;11.02;9.27;;;7.10;99.90;;;;;;4966378;28;20039;-52
2023/11/13 01:43:24;;;;;;;12.43;8.77;;;7.10;99.90;;;;;;4951932;28;20112;-52
2023/11/13 01:45:55;;;;;;;12.52;8.43;;;7.10;99.90;;;;;;4952076;29;20030;-48
2023/11/13 01:48:21;;;;;;;9.75;8.25;;;7.10;99.90;;;;;;4952043;28;20055;-47
2023/11/13 01:50:48;;;;;;;10.05;8.55;;;7.20;99.90;;;;;;4951600;28;20209;-49
2023/11/13 01:53:17;;;;;;;9.63;7.95;;;7.10;99.90;;;;;;4951917;28;20035;-47
2023/11/13 01:55:44;;;;;;;12.88;9.75;;;7.10;99.90;;;;;;4950531;29;20031;-51
2023/11/13 01:58:10;;;;;;;10.75;8.65;;;7.20;99.90;;;;;;4950575;29;20077;-50
2023/11/13 02:00:37;;;;;;;10.25;8.60;;;7.20;99.90;;;;;;4951664;29;20065;-46
2023/11/13 02:03:05;;;;;;;9.98;8.63;;;7.20;99.90;;;;;;4951770;28;20038;-50
2023/11/13 02:05:31;;;;;;;13.05;9.10;;;7.20;99.90;;;;;;4966718;28;20074;-48
2023/11/13 02:07:57;;;;;;;10.02;8.30;;;7.20;99.90;;;;;;4951834;28;20016;-49
2023/11/13 02:10:23;;;;;;;10.40;8.57;;;7.20;99.90;;;;;;4951642;29;20092;-48
2023/11/13 02:12:49;;;;;;;11.23;9.13;;;7.20;99.90;;;;;;4951824;28;20063;-50
2023/11/13 02:15:15;;;;;;;12.93;9.25;;;7.20;99.90;;;;;;4951768;28;20438;-47
2023/11/13 02:18:01;;;;;;;15.75;10.77;;;7.30;99.90;;;;;;4966176;28;20039;-50
2023/11/13 02:20:28;;;;;;;12.25;9.27;;;7.40;99.90;;;;;;4951472;28;20038;-48
2023/11/13 02:22:53;;;;;;;16.30;10.35;;;7.40;99.90;;;;;;4951319;28;20027;-47
2023/11/13 02:25:23;;;;;;;12.20;9.80;;;7.30;99.90;;;;;;4950134;28;20097;-48
2023/11/13 02:27:55;;;;;;;12.25;9.93;;;7.30;99.90;;;;;;4951596;28;20433;-49
2023/11/13 02:30:21;;;;;;;12.15;9.63;;;7.30;99.90;;;;;;4949937;29;20031;-47
2023/11/13 02:32:50;;;;;;;12.88;11.38;;;7.30;99.90;;;;;;4951508;28;20031;-49
2023/11/13 02:35:16;;;;;;;15.10;10.23;;;7.30;99.90;;;;;;4951366;28;20391;-49
2023/11/13 02:37:42;;;;;;;16.38;10.93;;;7.30;99.90;;;;;;4951334;29;20089;-47
2023/11/13 02:40:12;;;;;;;13.63;10.55;;;7.20;99.90;;;;;;4951340;28;20126;-47
2023/11/13 02:42:39;;;;;;;13.38;9.68;;;7.30;99.90;;;;;;4950365;28;20031;-48
2023/11/13 02:45:05;;;;;;;12.57;10.15;;;7.30;99.90;;;;;;4951475;28;20031;-52
2023/11/13 02:47:31;;;;;;;16.33;10.88;;;7.30;99.90;;;;;;4951315;28;20387;-47
2023/11/13 02:49:57;;;;;;;14.13;10.38;;;7.30;99.90;;;;;;4950095;29;20080;-50
2023/11/13 02:52:23;;;;;;;12.20;10.43;;;7.30;99.90;;;;;;4966190;28;20031;-53
2023/11/13 02:54:49;;;;;;;15.30;11.05;;;7.30;99.90;;;;;;4951149;29;20035;-51
2023/11/13 02:57:15;;;;;;;14.05;10.90;;;7.30;99.90;;;;;;4965704;28;20027;-48
2023/11/13 02:59:40;;;;;;;14.02;10.38;;;7.30;99.90;;;;;;4950944;29;20062;-48
2023/11/13 03:02:06;;;;;;;12.43;10.13;;;7.40;99.90;;;;;;4965494;28;20367;-52
2023/11/13 03:04:31;;;;;;;12.02;10.45;;;7.40;99.90;;;;;;4965619;28;20046;-53
2023/11/13 03:06:57;;;;;;;13.95;11.18;;;7.40;99.90;;;;;;4950820;29;20126;-51
2023/11/13 03:09:22;;;;;;;15.80;10.23;;;7.50;99.90;;;;;;4949453;29;20129;-50
2023/11/13 03:11:48;;;;;;;12.85;10.18;;;7.40;99.90;;;;;;4950637;29;20042;-51
2023/11/13 03:14:14;;;;;;;12.02;10.52;;;7.50;99.90;;;;;;4950873;29;20382;-46
2023/11/13 03:16:39;;;;;;;14.80;10.40;;;7.40;99.90;;;;;;4950785;28;20285;-46
2023/11/13 03:19:05;;;;;;;15.40;11.00;;;7.20;99.90;;;;;;4950712;29;20045;-47
2023/11/13 03:21:30;;;;;;;12.48;10.55;;;7.50;99.90;;;;;;4949384;28;20033;-49
2023/11/13 03:23:56;;;;;;;14.95;10.70;;;7.40;99.90;;;;;;4950653;29;20114;-50
2023/11/13 03:26:21;;;;;;;11.73;9.95;;;7.40;99.90;;;;;;4950631;29;20317;-47
2023/11/13 03:28:47;;;;;;;12.77;10.65;;;7.50;99.90;;;;;;4950254;28;20074;-49
2023/11/13 03:31:13;;;;;;;13.85;10.45;;;7.50;99.90;;;;;;4949068;29;20024;-51
2023/11/13 03:33:39;;;;;;;13.15;10.40;;;7.50;99.90;;;;;;4950645;28;20092;-51
2023/11/13 03:36:05;;;;;;;13.57;11.38;;;7.50;99.90;;;;;;4950475;29;20510;-50
2023/11/13 03:38:30;;;;;;;15.32;9.75;;;7.50;99.90;;;;;;4950383;29;20073;-48
2023/11/13 03:40:56;;;;;;;12.43;9.35;;;7.50;99.90;;;;;;4950025;29;20161;-49
2023/11/13 03:43:22;;;;;;;13.68;10.93;;;7.50;99.90;;;;;;4950436;28;20398;-48
2023/11/13 03:45:47;;;;;;;14.38;10.77;;;7.60;99.90;;;;;;4949475;29;20019;-50
2023/11/13 03:48:13;;;;;;;12.68;9.80;;;7.60;99.90;;;;;;4950271;29;20479;-52
2023/11/13 03:50:39;;;;;;;12.55;10.52;;;7.60;99.90;;;;;;4950141;28;20125;-49
2023/11/13 03:53:04;;;;;;;11.65;10.05;;;7.60;99.90;;;;;;4950919;28;20031;-46
2023/11/13 03:55:30;;;;;;;14.07;10.63;;;7.60;99.90;;;;;;4953690;29;20035;-50
2023/11/13 03:57:55;;;;;;;14.02;10.55;;;7.70;99.90;;;;;;4953659;29;20031;-49
2023/11/13 04:00:21;;;;;;;11.85;10.43;;;7.70;99.90;;;;;;4953495;29;20095;-46
2023/11/13 04:02:50;;;;;;;15.20;12.05;;;7.70;99.90;;;;;;4953687;28;20376;-45
2023/11/13 04:05:17;;;;;;;14.18;10.57;;;7.70;99.90;;;;;;4968809;28;20020;-45
2023/11/13 04:07:42;;;;;;;15.52;11.77;;;7.70;99.90;;;;;;4953671;29;20030;-46
2023/11/13 04:10:14;;;;;;;16.95;12.35;;;7.70;99.90;;;;;;4953310;29;20023;-49
2023/11/13 04:12:40;;;;;;;15.38;11.95;;;7.60;99.90;;;;;;4953572;28;20614;-46
2023/11/13 04:15:08;;;;;;;13.88;10.85;;;7.50;99.90;;;;;;4968409;28;20114;-48
2023/11/13 04:17:34;;;;;;;11.98;10.25;;;7.50;99.90;;;;;;4953526;28;20114;-46
2023/11/13 04:19:59;;;;;;;13.32;10.02;;;7.50;99.90;;;;;;4953460;28;20027;-46
2023/11/13 04:22:26;;;;;;;14.07;10.45;;;7.50;99.90;;;;;;4953078;29;20038;-47
2023/11/13 04:24:53;;;;;;;11.15;9.80;;;7.60;99.90;;;;;;4953288;28;20030;-46
2023/11/13 04:27:18;;;;;;;12.95;9.93;;;7.50;99.90;;;;;;4953265;28;20058;-50
2023/11/13 04:29:44;;;;;;;10.50;8.65;;;7.50;99.90;;;;;;4952958;28;20128;-47
2023/11/13 04:32:09;;;;;;;12.73;9.27;;;7.50;99.90;;;;;;4953068;29;20031;-49
2023/11/13 04:34:35;;;;;;;10.60;8.50;;;7.50;99.90;;;;;;4953173;29;20062;-47
2023/11/13 04:37:02;;;;;;;10.52;8.73;;;7.50;99.90;;;;;;4952952;29;20036;-52
2023/11/13 04:39:28;;;;;;;12.18;10.23;;;7.50;99.90;;;;;;4953278;28;20391;-47
2023/11/13 04:41:55;;;;;;;10.48;8.57;;;7.60;99.90;;;;;;4953011;28;20094;-47
2023/11/13 04:44:20;;;;;;;13.52;9.35;;;7.70;99.90;;;;;;4953253;28;20097;-46
2023/11/13 04:46:45;;;;;;;10.13;8.38;;;7.70;99.90;;;;;;4952898;29;20023;-46
2023/11/13 04:49:11;;;;;;;10.98;8.85;;;7.70;99.90;;;;;;4967711;28;20023;-49
2023/11/13 04:51:40;;;;;;;10.50;8.50;;;7.70;99.90;;;;;;4952908;28;20034;-52
2023/11/13 04:54:06;;;;;;;10.98;8.95;;;7.70;99.90;;;;;;4952941;28;20425;-47
2023/11/13 04:56:31;;;;;;;12.20;9.25;;;7.70;99.90;;;;;;4953037;29;20103;-50
2023/11/13 04:58:57;;;;;;;11.45;9.90;;;7.70;99.90;;;;;;4952980;28;20031;-47
2023/11/13 05:01:23;;;;;;;11.57;9.43;;;7.80;99.90;;;;;;4967469;28;20444;-47
2023/11/13 05:03:48;;;;;;;10.10;8.70;;;7.80;99.90;;;;;;4953045;29;20024;-51
2023/11/13 05:06:17;;;;;;;8.43;7.45;;;7.80;99.90;;;;;;4951994;28;20502;-48
2023/11/13 05:08:46;;;;;;;10.10;8.48;;;7.80;99.90;;;;;;4952598;29;20025;-46
2023/11/13 05:11:25;;;;;;;9.57;8.02;;;7.80;99.90;;;;;;4952525;28;20114;-46
2023/11/13 05:13:51;;;;;;;10.23;8.32;;;7.80;99.90;;;;;;4952535;28;20023;-46
2023/11/13 05:16:22;;;;;;;12.25;8.98;;;7.90;99.90;;;;;;4952532;28;20024;-47
2023/11/13 05:18:48;;;;;;;9.32;8.18;;;7.90;99.90;;;;;;4952656;28;20040;-47
2023/11/13 05:21:14;;;;;;;9.95;8.40;;;7.90;99.90;;;;;;4952252;29;20033;-47
2023/11/13 05:23:40;;;;;;;12.63;9.70;;;8.00;99.90;;;;;;4952484;28;20427;-45
2023/11/13 05:26:05;;;;;;;10.65;8.55;;;7.90;99.90;;;;;;4967154;28;20262;-46
2023/11/13 05:28:31;;;;;;;10.82;8.23;;;7.90;99.90;;;;;;4966880;28;20023;-47
2023/11/13 05:30:56;;;;;;;10.30;8.43;;;7.90;99.90;;;;;;4952045;29;20391;-49
2023/11/13 05:33:22;;;;;;;9.20;7.60;;;8.00;99.90;;;;;;4952280;29;20028;-46
2023/11/13 05:35:47;;;;;;;9.52;8.18;;;7.90;99.90;;;;;;4952284;29;20031;-49
2023/11/13 05:38:14;;;;;;;11.25;9.18;;;8.00;99.90;;;;;;4952239;29;20114;-50
2023/11/13 05:40:39;;;;;;;12.18;7.90;;;8.10;99.90;;;;;;4951880;29;20035;-46
2023/11/13 05:43:05;;;;;;;12.15;9.40;;;8.20;99.90;;;;;;4952073;29;20082;-47
2023/11/13 05:45:31;;;;;;;10.13;8.48;;;8.20;99.90;;;;;;4952317;29;20047;-46
2023/11/13 05:47:56;;;;;;;9.93;8.43;;;8.10;99.90;;;;;;4952009;29;20430;-49
2023/11/13 05:50:23;;;;;;;11.70;9.43;;;8.10;99.90;;;;;;4952104;29;20027;-46
2023/11/13 05:52:49;;;;;;;12.70;9.55;;;8.10;99.90;;;;;;4952195;28;20024;-48
2023/11/13 05:55:15;;;;;;;12.55;9.85;;;8.10;99.90;;;;;;4952165;28;20069;-46
2023/11/13 05:57:42;;;;;;;11.23;8.75;;;8.10;99.90;;;;;;4952096;28;20031;-45
2023/11/13 06:00:11;;;;;;;12.27;9.70;;;8.00;99.90;;;;;;4951881;28;20169;-46
2023/11/13 06:02:37;;;;;;;13.63;10.65;;;8.10;99.90;;;;;;4952156;28;20027;-47
2023/11/13 06:05:03;;;;;;;13.10;9.63;;;8.00;99.90;;;;;;4952364;28;20028;-47
2023/11/13 06:07:28;;;;;;;15.13;10.88;;;8.00;99.90;;;;;;4952195;28;20109;-52
2023/11/13 06:09:55;;;;;;;16.73;10.88;;;8.00;99.90;;;;;;4951751;29;20024;-53
2023/11/13 06:12:20;;;;;;;16.80;11.38;;;8.10;99.90;;;;;;4951552;28;20023;-50
2023/11/13 06:14:46;;;;;;;14.82;12.00;;;8.10;99.90;;;;;;4951827;29;20058;-47
2023/11/13 06:17:11;;;;;;;16.30;11.80;;;8.10;99.90;;;;;;4951460;29;20376;-49
2023/11/13 06:19:37;;;;;;;17.17;11.77;;;8.10;99.90;;;;;;4951861;29;20028;-48
2023/11/13 06:22:02;;;;;;;18.13;12.23;;;8.10;99.90;;;;;;4951530;29;20031;-52
2023/11/13 06:24:28;;;;;;;17.25;11.65;;;8.00;99.90;;;;;;4951696;28;20070;-47
2023/11/13 06:26:54;;;;;;;15.88;12.13;;;8.00;99.90;;;;;;4951426;29;20483;-46
2023/11/13 06:29:20;;;;;;;17.00;11.75;;;7.90;99.90;;;;;;4951382;28;20027;-47
2023/11/13 06:31:45;;;;;;;18.15;12.77;;;7.90;99.90;;;;;;4966213;28;20046;-47
2023/11/13 06:34:11;;;;;;;19.00;12.95;;;7.90;99.90;;;;;;4951332;29;20061;-51
2023/11/13 06:36:42;;;;;;;16.65;11.85;;;7.90;99.90;;;;;;4953409;28;20102;-51
2023/11/13 06:39:07;;;;;;;21.85;13.05;;;7.90;99.90;;;;;;4971230;28;20137;-47
2023/11/13 06:41:33;;;;;;;19.77;12.52;;;7.90;99.90;;;;;;4970372;28;20489;-52
2023/11/13 06:44:02;;;;;;;18.08;12.73;;;7.90;99.90;;;;;;4969211;28;20409;-47
2023/11/13 06:46:28;;;;;;;18.77;12.52;;;7.90;99.90;;;;;;4970418;28;20101;-47
2023/11/13 06:48:53;;;;;;;21.02;13.93;;;8.00;99.90;;;;;;4970469;28;20061;-49
2023/11/13 06:51:20;;;;;;;18.40;13.65;;;8.00;99.90;;;;;;4970461;28;20030;-48
2023/11/13 06:53:46;;;;;;;18.58;13.32;;;8.10;99.90;;;;;;4968975;28;20032;-49
2023/11/13 06:56:11;;;;;;;19.80;13.13;;;8.10;99.90;;;;;;4968775;28;20332;-50
2023/11/13 06:58:37;;;;;;;17.52;12.63;;;8.10;99.90;;;;;;4970421;28;20475;-47
2023/11/13 07:01:03;;;;;;;18.40;12.57;;;8.10;99.90;;;;;;4970143;28;20026;-45
2023/11/13 07:03:29;;;;;;;20.17;13.27;;;8.10;99.90;;;;;;4970013;28;20355;-48
2023/11/13 07:05:55;;;;;;;19.52;13.63;;;8.10;99.90;;;;;;4970357;28;20133;-47
2023/11/13 07:08:21;;;;;;;22.75;13.40;;;8.10;99.90;;;;;;4970623;28;20050;-48
2023/11/13 07:10:46;;;;;;;21.92;14.00;;;8.00;99.90;;;;;;4967466;28;20104;-49
2023/11/13 07:13:12;;;;;;;21.60;14.63;;;8.00;99.90;;;;;;4971380;28;20118;-50
2023/11/13 07:15:38;;;;;;;20.88;14.05;;;7.90;99.90;;;;;;4968976;28;20092;-49
2023/11/13 07:18:06;;;;;;;20.60;13.75;;;7.90;99.90;;;;;;4969077;28;20039;-47
2023/11/13 07:20:32;;;;;;;23.13;14.68;;;7.90;99.90;;;;;;4970545;28;20042;-48
2023/11/13 07:22:58;;;;;;;23.20;14.57;;;7.90;99.90;;;;;;4969411;28;20032;-49
2023/11/13 07:25:24;;;;;;;23.52;14.65;;;7.90;99.90;;;;;;4975187;28;20479;-46
2023/11/13 07:27:49;;;;;;;22.40;14.70;;;7.90;99.90;;;;;;4968508;28;20034;-48
2023/11/13 07:30:15;;;;;;;21.83;14.73;;;7.90;99.90;;;;;;4969187;28;20113;-52
2023/11/13 07:32:41;;;;;;;23.27;15.23;;;7.90;99.90;;;;;;4969434;28;20026;-58
2023/11/13 07:35:10;;;;;;;20.17;13.40;;;8.00;99.90;;;;;;4969650;28;20379;-54
2023/11/13 07:37:36;;;;;;;18.83;13.07;;;8.00;99.90;;;;;;4969839;28;20076;-54
2023/11/13 07:40:02;;;;;;;21.10;12.35;;;8.10;99.90;;;;;;4969711;28;20031;-52
2023/11/13 07:42:29;;;;;;;15.48;11.30;;;8.10;99.90;;;;;;4969705;28;20489;-55
2023/11/13 07:44:55;;;;;;;19.35;13.20;;;8.10;99.90;;;;;;4969924;28;20068;-54
2023/11/13 07:47:26;;;;;;;17.60;12.50;;;8.20;99.90;;;;;;4968885;28;20050;-53
2023/11/13 07:49:56;;;;;;;18.23;11.75;;;8.20;99.90;;;;;;4969809;28;20019;-59
2023/11/13 07:52:22;;;;;;;17.33;12.82;;;8.30;99.90;;;;;;4970272;28;20075;-54
2023/11/13 07:54:48;;;;;;;17.48;12.05;;;8.40;99.90;;;;;;4970024;28;20110;-53
2023/11/13 07:57:14;;;;;;;18.15;12.52;;;8.40;99.90;;;;;;4969692;28;20035;-58
2023/11/13 07:59:41;;;;;;;13.98;10.75;;;8.40;99.90;;;;;;4969412;28;20030;-56
2023/11/13 08:02:09;;;;;;;18.80;11.25;;;8.40;99.90;;;;;;4967953;28;20102;-54
2023/11/13 08:04:35;;;;;;;15.40;11.23;;;8.40;99.90;;;;;;4969882;28;20506;-55
2023/11/13 08:07:02;;;;;;;16.50;11.10;;;8.50;99.90;;;;;;4969532;28;20146;-56
2023/11/13 08:09:28;;;;;;;15.38;11.20;;;8.50;99.90;;;;;;4968302;28;20110;-58
2023/11/13 08:11:54;;;;;;;16.95;11.75;;;8.70;99.90;;;;;;4969170;28;20050;-55
2023/11/13 08:14:21;;;;;;;16.63;11.40;;;8.60;99.90;;;;;;4969475;28;20037;-53
2023/11/13 08:16:46;;;;;;;14.32;9.25;;;8.60;99.90;;;;;;4969317;28;20026;-57
2023/11/13 08:19:12;;;;;;;12.63;9.57;;;8.60;99.90;;;;;;4968132;28;20421;-55
2023/11/13 08:21:37;;;;;;;15.13;10.88;;;8.60;99.90;;;;;;4968232;28;20089;-50
2023/11/13 08:24:04;;;;;;;13.77;9.45;;;8.70;99.90;;;;;;4968435;28;20030;-57
2023/11/13 08:26:32;;;;;;;11.65;9.30;;;8.70;99.90;;;;;;4970929;28;20482;-56
2023/11/13 08:28:58;;;;;;;12.45;10.13;;;8.60;99.90;;;;;;4970629;28;20034;-55
2023/11/13 08:31:26;;;;;;;16.92;10.77;;;8.70;99.90;;;;;;4970443;28;20482;-54
2023/11/13 08:33:55;;;;;;;14.77;11.00;;;8.70;99.90;;;;;;4970295;28;20478;-54
2023/11/13 08:36:26;;;;;;;13.45;10.18;;;8.70;99.90;;;;;;4969642;28;20023;-53
2023/11/13 08:38:52;;;;;;;14.27;10.77;;;8.70;99.90;;;;;;4984087;28;20395;-50
2023/11/13 08:41:18;;;;;;;14.07;9.77;;;8.80;99.90;;;;;;4971346;28;20031;-54
2023/11/13 08:43:45;;;;;;;14.90;10.02;;;8.90;99.90;;;;;;4972737;28;20133;-52
2023/11/13 08:46:14;;;;;;;16.23;8.25;;;8.90;99.90;;;;;;4971331;28;20023;-51
2023/11/13 08:48:40;;;;;;;12.57;9.50;;;9.00;99.90;;;;;;4972503;28;20394;-53
2023/11/13 08:51:07;;;;;;;17.00;8.77;;;9.10;99.90;;;;;;4972415;28;20035;-51
2023/11/13 08:53:38;;;;;;;16.40;10.00;;;9.10;99.90;;;;;;4972896;28;20022;-50
2023/11/13 08:56:04;;;;;;;14.57;9.40;;;9.20;99.90;;;;;;4972838;28;20027;-54
2023/11/13 08:58:30;;;;;;;15.70;9.27;;;9.20;99.90;;;;;;4972581;28;20077;-52
2023/11/13 09:00:56;;;;;;;16.65;8.27;;;9.20;99.90;;;;;;4971009;28;20034;-53
2023/11/13 09:03:21;;;;;;;14.25;9.05;;;9.20;99.90;;;;;;4972827;28;20084;-55
2023/11/13 09:05:47;;;;;;;12.95;9.18;;;9.30;99.90;;;;;;4972497;28;20397;-52
2023/11/13 09:08:13;;;;;;;18.55;8.35;;;9.40;99.90;;;;;;4972900;28;20023;-53
2023/11/13 09:10:42;;;;;;;22.15;9.85;;;9.50;99.90;;;;;;4972936;28;20031;-52
2023/11/13 09:13:08;;;;;;;17.17;8.98;;;9.60;99.90;;;;;;4971821;28;20023;-53
2023/11/13 09:15:34;;;;;;;15.50;8.20;;;9.60;99.90;;;;;;4972868;28;20037;-50
2023/11/13 09:18:07;;;;;;;18.85;7.82;;;9.70;99.90;;;;;;4972846;28;20050;-49
2023/11/13 09:20:33;;;;;;;20.02;8.00;;;9.80;99.90;;;;;;4972343;28;20032;-52
2023/11/13 09:23:02;;;;;;;18.55;7.93;;;9.80;99.90;;;;;;4972320;28;20031;-53
2023/11/13 09:25:28;;;;;;;14.32;6.63;;;9.90;99.90;;;;;;4971973;28;20022;-52
2023/11/13 09:27:56;;;;;;;16.92;7.60;;;10.00;99.90;;;;;;4971893;28;20023;-50
2023/11/13 09:30:22;;;;;;;27.05;7.35;;;10.00;99.90;;;;;;4971564;28;20105;-52
2023/11/13 09:32:49;;;;;;;26.55;6.63;;;10.00;99.90;;;;;;4986729;28;20103;-51
2023/11/13 09:35:23;;;;;;;24.98;7.10;;;10.10;99.90;;;;;;4969200;28;20109;-48
2023/11/13 09:37:51;;;;;;;26.45;10.82;;;10.20;99.90;;;;;;4952522;28;20024;-49
2023/11/13 09:40:18;;;;;;;27.65;10.32;;;10.30;99.90;;;;;;4951489;28;20035;-48
2023/11/13 09:42:52;;;;;;;27.35;9.60;;;10.30;99.90;;;;;;4952402;28;20024;-50
2023/11/13 09:45:20;;;;;;;22.95;8.73;;;10.40;99.90;;;;;;4952363;28;20023;-53
2023/11/13 09:47:47;;;;;;;20.42;6.80;;;10.40;99.90;;;;;;4957696;28;20046;-50
2023/11/13 09:50:17;;;;;;;14.30;6.93;;;10.40;99.90;;;;;;4960298;28;20390;-51
2023/11/13 09:52:46;;;;;;;26.23;7.60;;;10.50;99.90;;;;;;4960304;28;20154;-48
2023/11/13 09:55:18;;;;;;;29.15;7.75;;;10.50;99.90;;;;;;4952103;28;20309;-48
2023/11/13 09:57:45;;;;;;;28.23;7.93;;;10.50;99.90;;;;;;4952148;28;20402;-49
2023/11/13 10:00:16;;;;;;;21.38;7.25;;;10.50;99.90;;;;;;4966487;28;20041;-54
2023/11/13 10:02:46;;;;;;;24.48;7.07;;;10.50;99.90;;;;;;4970396;28;20026;-54
2023/11/13 10:05:17;;;;;;;17.83;7.30;;;10.60;99.90;;;;;;4969111;28;20101;-50
2023/11/13 10:07:47;;;;;;;22.27;6.32;;;10.60;99.90;;;;;;4970334;28;20153;-51
2023/11/13 10:10:19;;;;;;;22.90;6.57;;;10.60;99.90;;;;;;4985981;28;20110;-50
2023/11/13 10:12:45;;;;;;;19.05;6.05;;;10.60;99.90;;;;;;4970805;28;20108;-49
2023/11/13 10:15:14;;;;;;;17.02;6.75;;;10.70;99.90;;;;;;4986257;28;20081;-55
2023/11/13 10:17:44;;;;;;;17.90;6.35;;;10.70;99.90;;;;;;4971521;28;20483;-52
2023/11/13 10:20:11;;;;;;;16.90;5.95;;;10.70;99.90;;;;;;4985908;28;20081;-50
2023/11/13 10:22:37;;;;;;;15.57;5.55;;;10.70;99.90;;;;;;4971054;28;20208;-49
2023/11/13 10:25:05;;;;;;;15.15;6.38;;;10.70;99.90;;;;;;4971192;28;20023;-49
2023/11/13 10:27:32;;;;;;;20.35;5.88;;;10.70;99.90;;;;;;4970939;28;20425;-49
2023/11/13 10:30:05;;;;;;;18.65;5.90;;;10.70;99.90;;;;;;4970901;28;20031;-51
2023/11/13 10:32:32;;;;;;;21.10;7.03;;;10.80;99.90;;;;;;4971084;28;20129;-55
2023/11/13 10:34:58;;;;;;;14.27;5.22;;;10.80;99.90;;;;;;4985756;28;20065;-52
2023/11/13 10:37:24;;;;;;;18.30;5.35;;;10.80;99.90;;;;;;4985875;28;20498;-54
2023/11/13 10:39:51;;;;;;;11.90;4.70;;;10.90;99.90;;;;;;4970394;28;20035;-52
2023/11/13 10:42:25;;;;;;;14.95;6.38;;;10.70;99.90;;;;;;4969119;28;20038;-54
2023/11/13 10:45:01;;;;;;;13.98;5.30;;;10.80;99.90;;;;;;4970872;28;20473;-53
2023/11/13 10:47:30;;;;;;;12.60;4.97;;;10.80;99.90;;;;;;4970780;28;20030;-53
2023/11/13 10:49:57;;;;;;;12.18;5.63;;;10.80;99.90;;;;;;4970706;28;20101;-56
2023/11/13 10:52:24;;;;;;;14.48;6.32;;;10.70;99.90;;;;;;4970336;28;20015;-49
2023/11/13 10:54:58;;;;;;;13.85;5.90;;;10.80;99.90;;;;;;4969945;28;20023;-51
2023/11/13 10:57:26;;;;;;;18.98;7.07;;;10.80;99.90;;;;;;4970281;28;20019;-48
2023/11/13 10:59:53;;;;;;;13.88;6.35;;;10.80;99.90;;;;;;4970468;28;20494;-51
2023/11/13 11:02:41;;;;;;;11.32;6.53;;;10.90;99.90;;;;;;4969609;28;20018;-53
2023/11/13 11:05:13;;;;;;;9.93;6.05;;;10.90;99.90;;;;;;4970398;28;20018;-56
2023/11/13 11:07:39;;;;;;;13.95;6.07;;;10.90;99.90;;;;;;4969388;28;20029;-47
2023/11/13 11:10:07;;;;;;;13.23;6.22;;;10.90;99.90;;;;;;4969902;28;20031;-54
2023/11/13 11:12:38;;;;;;;20.88;6.75;;;11.00;99.90;;;;;;4968561;28;20081;-53
2023/11/13 11:15:35;;;;;;;11.00;6.82;;;10.90;99.90;;;;;;4974412;28;20050;-53
2023/11/13 11:18:05;;;;;;;;;;;11.00;99.90;;;;;;4967253;28;20027;-53
2023/11/13 11:20:52;;;;;;;15.73;7.55;;;11.00;99.90;;;;;;4970020;28;19906;-52
2023/11/13 11:23:23;;;;;;;13.75;8.18;;;11.00;99.90;;;;;;4969881;28;20027;-49
2023/11/13 11:25:51;;;;;;;19.05;8.63;;;11.00;99.90;;;;;;4969878;28;20065;-48
2023/11/13 11:28:36;;;;;;;16.50;7.82;;;11.10;99.90;;;;;;4969609;28;20023;-54
2023/11/13 11:31:04;;;;;;;22.47;11.13;;;11.00;99.90;;;;;;4950946;28;20027;-51
2023/11/13 11:33:34;;;;;;;14.82;9.07;;;11.10;99.90;;;;;;4963996;28;20093;-55
2023/11/13 11:36:00;;;;;;;21.02;9.57;;;11.10;99.90;;;;;;4970040;28;20018;-54
2023/11/13 11:38:29;;;;;;;17.13;10.02;;;11.10;99.90;;;;;;4969811;28;20031;-53
2023/11/13 11:40:58;;;;;;;15.82;10.73;;;11.10;99.90;;;;;;4969382;28;20031;-52
2023/11/13 11:43:38;;;;;;;17.05;10.88;;;11.20;99.90;;;;;;4968962;28;20027;-53
2023/11/13 11:46:04;;;;;;;17.42;10.80;;;11.20;99.90;;;;;;4967656;28;20027;-51
2023/11/13 11:48:31;;;;;;;28.15;10.95;;;11.20;99.90;;;;;;4969353;28;20429;-53
2023/11/13 11:50:57;;;;;;;16.25;10.18;;;11.20;99.90;;;;;;4967888;28;20058;-51
2023/11/13 11:53:23;;;;;;;17.42;12.57;;;11.20;99.90;;;;;;4966498;28;20030;-53
2023/11/13 11:55:49;;;;;;;17.52;11.40;;;11.30;99.90;;;;;;4960027;28;20509;-52
2023/11/13 11:58:16;;;;;;;24.02;12.05;;;11.30;99.90;;;;;;4969459;28;20035;-51
2023/11/13 12:00:44;;;;;;;19.38;11.32;;;11.30;99.90;;;;;;4953086;28;20024;-48
2023/11/13 12:03:10;;;;;;;13.23;10.50;;;11.40;99.90;;;;;;4955419;28;20062;-54
2023/11/13 12:05:36;;;;;;;16.45;10.38;;;11.40;99.90;;;;;;4968832;28;20031;-50
2023/11/13 12:08:04;;;;;;;28.05;10.68;;;11.50;99.90;;;;;;4969415;28;20038;-49
2023/11/13 12:10:33;;;;;;;15.13;9.82;;;11.50;99.90;;;;;;4969399;28;20084;-47
2023/11/13 12:12:58;;;;;;;18.55;9.77;;;11.60;99.90;;;;;;4952763;28;20023;-49
2023/11/13 12:15:26;;;;;;;13.80;9.02;;;11.60;99.90;;;;;;4952675;29;20047;-47
2023/11/13 12:17:52;;;;;;;16.15;9.85;;;11.60;99.90;;;;;;4952410;28;20536;-46
2023/11/13 12:20:18;;;;;;;25.45;10.07;;;11.70;99.90;;;;;;4953172;29;20035;-46
2023/11/13 12:22:44;;;;;;;15.80;10.00;;;11.70;99.90;;;;;;4953606;29;20031;-52
2023/11/13 12:25:12;;;;;;;13.27;9.93;;;11.80;99.90;;;;;;4968228;28;20038;-53
2023/11/13 12:27:41;;;;;;;19.58;10.88;;;11.80;99.90;;;;;;4972175;28;20019;-49
2023/11/13 12:30:19;;;;;;;23.45;11.02;;;11.80;99.90;;;;;;4972390;28;20031;-45
2023/11/13 12:32:50;;;;;;;18.25;10.68;;;11.90;99.90;;;;;;4968885;28;20083;-50
2023/11/13 12:35:19;;;;;;;22.77;11.73;;;11.90;99.90;;;;;;4953359;28;20455;-46
2023/11/13 12:37:46;;;;;;;21.20;11.30;;;12.00;99.90;;;;;;4952169;28;20414;-52
2023/11/13 12:40:13;;;;;;;19.83;10.43;;;12.00;99.90;;;;;;5004289;23;20050;-46